Menu Close Menu
Station Historical Data
Daily Summary for April 12, 2017 Units:  English    Metric   Both
« Previous Day
Next Day »
Daily Weekly Monthly Yearly Custom
  High: Low: Average:
Temperature: 81.6 °F 60.8 °F 69.1 °F
Dew Point: 59.1 °F 50.1 °F 54.7 °F
Humidity: 84% 35% 62%
Wind Speed: 1.0mph 0.0mph 0.1mph
Wind Gust: 5.0mph - -
Wind- - SE
Pressure: 30.27 in 30.18 in -
Precipitation: 0.00 in    
Historical Graphs
 
 
Tabular Data for April 12, 2017
Time Temperature Dew Point Pressure Wind Wind Speed Wind Gust Humidity Rainfall Rate (Hourly) solar Conditions
00:00 64.7 °F 51.4 °F 30.22 in Calm     62% 0.00 in WeatherDisplay:10.37 W/m2 CLR
00:15 64.1 °F 51.3 °F 30.22 in Calm     63% 0.00 in WeatherDisplay:10.37 W/m2 CLR
00:30 63.9 °F 51.5 °F 30.22 in Calm     64% 0.00 in WeatherDisplay:10.37 W/m2 CLR
00:45 63.4 °F 51.8 °F 30.22 in Calm     66% 0.00 in WeatherDisplay:10.37 W/m2 CLR
01:00 62.6 °F 52.3 °F 30.22 in Calm     69% 0.00 in WeatherDisplay:10.37 W/m2 CLR
01:15 62.4 °F 52.5 °F 30.22 in Calm     70% 0.00 in WeatherDisplay:10.37 W/m2 CLR
01:30 62.2 °F 52.6 °F 30.21 in Calm     71% 0.00 in WeatherDisplay:10.37 W/m2 CLR
01:45 62.0 °F 52.5 °F 30.21 in Calm     71% 0.00 in WeatherDisplay:10.37 W/m2 CLR
02:00 61.8 °F 52.3 °F 30.20 in Calm     71% 0.00 in WeatherDisplay:10.37 W/m2 CLR
02:15 62.1 °F 52.2 °F 30.20 in Calm     70% 0.00 in WeatherDisplay:10.37 W/m2 CLR
02:30 61.5 °F 53.2 °F 30.20 in Calm     74% 0.00 in WeatherDisplay:10.37 W/m2 CLR
02:45 60.8 °F 53.2 °F 30.20 in Calm     76% 0.00 in WeatherDisplay:10.37 W/m2 CLR
03:00 61.3 °F 53.7 °F 30.20 in Calm   1.0 mph 76% 0.00 in WeatherDisplay:10.37 W/m2 CLR
03:15 61.9 °F 54.2 °F 30.19 in Calm   1.0 mph 76% 0.00 in WeatherDisplay:10.37 W/m2 CLR
04:00 63.2 °F 54.8 °F 30.19 in Calm     74% 0.00 in WeatherDisplay:10.37 W/m2 CLR
04:15 63.8 °F 55.4 °F 30.19 in Calm   1.0 mph 74% 0.00 in WeatherDisplay:10.37 W/m2 CLR
04:30 63.8 °F 55.4 °F 30.18 in Calm     74% 0.00 in WeatherDisplay:10.37 W/m2 CLR
04:45 63.8 °F 55.4 °F 30.18 in Calm     74% 0.00 in WeatherDisplay:10.37 W/m2 CLR
05:00 63.8 °F 55.4 °F 30.18 in Calm     74% 0.00 in WeatherDisplay:10.37 W/m2 CLR
05:15 63.8 °F 55.4 °F 30.18 in Calm     74% 0.00 in WeatherDisplay:10.37 W/m2 CLR
05:30 63.8 °F 55.4 °F 30.19 in Calm     74% 0.00 in WeatherDisplay:10.37 W/m2 CLR
05:45 63.8 °F 55.4 °F 30.19 in Calm     74% 0.00 in WeatherDisplay:10.37 W/m2 CLR
06:00 63.8 °F 55.4 °F 30.19 in Calm     74% 0.00 in WeatherDisplay:10.37 W/m2 CLR
06:15 63.8 °F 55.4 °F 30.19 in Calm     74% 0.00 in WeatherDisplay:10.37 W/m2 CLR
06:30 63.8 °F 55.4 °F 30.19 in Calm     74% 0.00 in WeatherDisplay:10.37 W/m2 CLR
06:45 63.8 °F 55.4 °F 30.20 in Calm     74% 0.00 in WeatherDisplay:10.37 W/m2 CLR
07:00 63.8 °F 55.4 °F 30.20 in Calm     74% 0.00 in WeatherDisplay:10.37 W/m2 CLR
07:15 63.8 °F 55.4 °F 30.21 in Calm     74% 0.00 in WeatherDisplay:10.37 W/m2 CLR
07:30 63.8 °F 55.4 °F 30.22 in Calm     74% 0.00 in WeatherDisplay:10.37 W/m2 CLR
07:45 63.8 °F 55.4 °F 30.22 in Calm     74% 0.00 in WeatherDisplay:10.37 W/m2 CLR
08:00 63.8 °F 55.4 °F 30.23 in Calm     74% 0.00 in WeatherDisplay:10.37 W/m2 CLR
08:15 63.8 °F 55.4 °F 30.23 in Calm     74% 0.00 in WeatherDisplay:10.37 W/m2 CLR
08:30 63.8 °F 55.4 °F 30.24 in Calm     74% 0.00 in WeatherDisplay:10.37 W/m2 CLR
08:45 61.6 °F 56.7 °F 30.24 in Calm     84% 0.00 in WeatherDisplay:10.37 W/m2 CLR
09:00 63.0 °F 58.1 °F 30.24 in Calm     84% 0.00 in WeatherDisplay:10.37 W/m2 CLR
09:15 64.2 °F 57.9 °F 30.24 in Calm     80% 0.00 in WeatherDisplay:10.37 W/m2 CLR
09:30 65.1 °F 57.7 °F 30.25 in Calm   2.0 mph 77% 0.00 in WeatherDisplay:10.37 W/m2 CLR
09:45 65.2 °F 58.2 °F 30.26 in Calm   1.0 mph 78% 0.00 in WeatherDisplay:10.37 W/m2 CLR
10:00 66.2 °F 58.4 °F 30.26 in Calm   1.0 mph 76% 0.00 in WeatherDisplay:10.37 W/m2 CLR
10:15 67.6 °F 58.2 °F 30.26 in Calm   5.0 mph 72% 0.00 in WeatherDisplay:10.37 W/m2 CLR
10:30 69.7 °F 59.1 °F 30.26 in Calm   2.0 mph 69% 0.00 in WeatherDisplay:10.37 W/m2 CLR
10:45 70.9 °F 57.7 °F 30.26 in Calm   1.0 mph 63% 0.00 in WeatherDisplay:10.37 W/m2 CLR
11:00 71.1 °F 58.3 °F 30.27 in Calm   2.0 mph 64% 0.00 in WeatherDisplay:10.37 W/m2 CLR
11:15 71.4 °F 59.0 °F 30.27 in Calm   2.0 mph 65% 0.00 in WeatherDisplay:10.37 W/m2 CLR
11:30 73.0 °F 58.3 °F 30.27 in WSW 1.0 mph 2.0 mph 60% 0.00 in WeatherDisplay:10.37 W/m2 CLR
11:45 73.6 °F 58.8 °F 30.27 in Calm   3.0 mph 60% 0.00 in WeatherDisplay:10.37 W/m2 CLR
12:00 74.1 °F 57.9 °F 30.27 in Calm   1.0 mph 57% 0.00 in WeatherDisplay:10.37 W/m2 CLR
12:15 76.6 °F 57.1 °F 30.26 in SSE 1.0 mph 2.0 mph 51% 0.00 in WeatherDisplay:10.37 W/m2 CLR
12:30 77.8 °F 56.6 °F 30.26 in Calm   2.0 mph 48% 0.00 in WeatherDisplay:10.37 W/m2 CLR
12:45 79.0 °F 55.8 °F 30.26 in East 1.0 mph 3.0 mph 45% 0.00 in WeatherDisplay:10.37 W/m2 CLR
13:00 80.2 °F 58.1 °F 30.25 in Calm   3.0 mph 47% 0.00 in WeatherDisplay:10.37 W/m2 CLR
13:15 80.6 °F 56.7 °F 30.25 in Calm   5.0 mph 44% 0.00 in WeatherDisplay:10.37 W/m2 CLR
13:30 81.5 °F 55.6 °F 30.24 in Calm   3.0 mph 41% 0.00 in WeatherDisplay:10.37 W/m2 CLR
13:45 81.6 °F 54.9 °F 30.24 in Calm   3.0 mph 40% 0.00 in WeatherDisplay:10.37 W/m2 CLR
14:00 81.5 °F 51.2 °F 30.24 in Calm   5.0 mph 35% 0.00 in WeatherDisplay:10.37 W/m2 CLR
14:15 81.2 °F 51.7 °F 30.24 in East 1.0 mph 3.0 mph 36% 0.00 in WeatherDisplay:10.37 W/m2 CLR
14:30 81.4 °F 52.6 °F 30.23 in Calm   5.0 mph 37% 0.00 in WeatherDisplay:10.37 W/m2 CLR
14:45 80.3 °F 52.3 °F 30.23 in East 1.0 mph 5.0 mph 38% 0.00 in WeatherDisplay:10.37 W/m2 CLR
15:00 79.5 °F 53.7 °F 30.23 in Calm   5.0 mph 41% 0.00 in WeatherDisplay:10.37 W/m2 CLR
15:30 79.8 °F 53.3 °F 30.22 in Calm   2.0 mph 40% 0.00 in WeatherDisplay:10.37 W/m2 CLR
15:45 79.3 °F 52.2 °F 30.22 in SE 1.0 mph 3.0 mph 39% 0.00 in WeatherDisplay:10.37 W/m2 CLR
16:00 80.3 °F 53.1 °F 30.21 in Calm   3.0 mph 39% 0.00 in WeatherDisplay:10.37 W/m2 CLR
16:15 79.4 °F 50.1 °F 30.21 in Calm   3.0 mph 36% 0.00 in WeatherDisplay:10.37 W/m2 CLR
16:30 79.8 °F 51.2 °F 30.21 in Calm   2.0 mph 37% 0.00 in WeatherDisplay:10.37 W/m2 CLR
17:00 80.4 °F 50.2 °F 30.20 in Calm   3.0 mph 35% 0.00 in WeatherDisplay:10.37 W/m2 CLR
17:15 80.1 °F 50.7 °F 30.20 in Calm   2.0 mph 36% 0.00 in WeatherDisplay:10.37 W/m2 CLR
17:30 78.7 °F 52.3 °F 30.21 in Calm   5.0 mph 40% 0.00 in WeatherDisplay:10.37 W/m2 CLR
17:45 76.0 °F 53.2 °F 30.20 in Calm   3.0 mph 45% 0.00 in WeatherDisplay:10.37 W/m2 CLR
18:00 74.0 °F 55.2 °F 30.21 in Calm   1.0 mph 52% 0.00 in WeatherDisplay:10.37 W/m2 CLR
18:15 72.6 °F 55.0 °F 30.21 in Calm   1.0 mph 54% 0.00 in WeatherDisplay:10.37 W/m2 CLR
18:30 72.5 °F 55.4 °F 30.21 in Calm     55% 0.00 in WeatherDisplay:10.37 W/m2 CLR
18:45 72.6 °F 56.0 °F 30.21 in Calm     56% 0.00 in WeatherDisplay:10.37 W/m2 CLR
19:00 72.7 °F 54.6 °F 30.21 in Calm     53% 0.00 in WeatherDisplay:10.37 W/m2 CLR
19:15 72.9 °F 54.8 °F 30.21 in Calm     53% 0.00 in WeatherDisplay:10.37 W/m2 CLR
19:30 72.8 °F 54.7 °F 30.21 in Calm     53% 0.00 in WeatherDisplay:10.37 W/m2 CLR
19:45 72.3 °F 54.2 °F 30.22 in Calm     53% 0.00 in WeatherDisplay:10.37 W/m2 CLR
20:00 71.6 °F 53.6 °F 30.22 in Calm     53% 0.00 in WeatherDisplay:10.37 W/m2 CLR
20:15 70.8 °F 53.3 °F 30.22 in Calm     54% 0.00 in WeatherDisplay:10.37 W/m2 CLR
20:30 70.0 °F 53.5 °F 30.23 in Calm     56% 0.00 in WeatherDisplay:10.37 W/m2 CLR
20:45 69.2 °F 54.3 °F 30.23 in Calm     59% 0.00 in WeatherDisplay:10.37 W/m2 CLR
21:00 68.2 °F 54.2 °F 30.23 in Calm     61% 0.00 in WeatherDisplay:10.37 W/m2 CLR
21:15 67.5 °F 54.5 °F 30.23 in Calm     63% 0.00 in WeatherDisplay:10.37 W/m2 CLR
21:30 66.7 °F 54.2 °F 30.24 in Calm     64% 0.00 in WeatherDisplay:10.37 W/m2 CLR
21:45 66.1 °F 54.9 °F 30.24 in Calm     67% 0.00 in WeatherDisplay:10.37 W/m2 CLR
22:00 65.6 °F 54.7 °F 30.24 in Calm     68% 0.00 in WeatherDisplay:10.37 W/m2 CLR
22:15 65.0 °F 55.0 °F 30.25 in Calm     70% 0.00 in WeatherDisplay:10.37 W/m2 CLR
22:30 64.1 °F 54.9 °F 30.25 in Calm     72% 0.00 in WeatherDisplay:10.37 W/m2 CLR
22:45 63.7 °F 54.9 °F 30.25 in Calm     73% 0.00 in WeatherDisplay:10.37 W/m2 CLR
23:00 63.2 °F 55.1 °F 30.25 in Calm     75% 0.00 in WeatherDisplay:10.37 W/m2 CLR
23:15 62.6 °F 54.9 °F 30.25 in Calm     76% 0.00 in WeatherDisplay:10.37 W/m2 CLR
23:30 62.4 °F 55.1 °F 30.25 in Calm     77% 0.00 in WeatherDisplay:10.37 W/m2 CLR
23:45 61.6 °F 54.7 °F 30.25 in Calm     78% 0.00 in WeatherDisplay:10.37 W/m2 CLR
Piedmont Bend
Compliments of Weather Underground - 4 mb